New Seabury, Massachusetts
Current Conditions -  °F | °C
As of 6:35 PM on Wednesday 22 Oct 2014 (Local Time) from KFMH Reporting Station
Haze Haze  
Wind Chill: 59°   Ceiling: 300
Heat Index: 59°   Visibility: 2mi
Dew Point: 59°   Wind: 24mph
Humidity: 100%   Direction: 50°NE
Pressure: 29.73"   Gusts: 30mph
Location:  41.6167°N, 70.4906°W
Report Text: KFMH 222235Z AUTO 05021G26KT 2SM BR OVC003 15/15 A2973 RMK AO2 LTG DSNT SE AND S
Loading
Personal Weather Stations






























Interactive Weather Map New forecast layout! Learn more

10-Day Weather Forecast

Advertisements
Track Severe Weather on mobile